createdAt,value
2018-09-17T00:01:50.393Z,99.90
2018-09-17T00:04:18.992Z,99.90
2018-09-17T00:06:47.585Z,99.90
2018-09-17T00:09:16.140Z,99.90
2018-09-17T00:11:44.648Z,99.90
2018-09-17T00:14:13.133Z,99.90
2018-09-17T00:16:44.140Z,99.90
2018-09-17T00:19:12.649Z,99.90
2018-09-17T00:21:41.137Z,99.90
2018-09-17T00:24:09.645Z,99.90
2018-09-17T00:26:38.128Z,99.90
2018-09-17T00:29:06.704Z,99.90
2018-09-17T00:31:36.180Z,99.90
2018-09-17T00:34:04.683Z,99.90
2018-09-17T00:36:33.218Z,99.90
2018-09-17T00:39:01.702Z,99.90
2018-09-17T00:41:30.248Z,99.90
2018-09-17T00:43:58.763Z,99.90
2018-09-17T00:46:27.310Z,99.90
2018-09-17T00:48:55.807Z,99.90
2018-09-17T00:51:24.345Z,99.90
2018-09-17T00:53:52.856Z,99.90
2018-09-17T00:56:21.369Z,99.90
2018-09-17T00:58:49.860Z,99.90
2018-09-17T01:01:18.421Z,99.90
2018-09-17T01:03:46.973Z,99.90
2018-09-17T01:06:15.443Z,99.90
2018-09-17T01:08:43.941Z,99.90
2018-09-17T01:11:12.449Z,99.90
2018-09-17T01:13:40.968Z,99.90
2018-09-17T01:16:09.464Z,99.90
2018-09-17T01:18:38.020Z,99.90
2018-09-17T01:21:06.566Z,99.90
2018-09-17T01:23:35.058Z,99.90
2018-09-17T01:26:10.203Z,99.90
2018-09-17T01:28:38.718Z,99.90
2018-09-17T01:31:07.758Z,99.90
2018-09-17T01:33:36.289Z,99.90
2018-09-17T01:36:04.815Z,99.90
2018-09-17T01:38:33.473Z,99.90
2018-09-17T01:41:02.024Z,99.90
2018-09-17T01:43:30.578Z,99.90
2018-09-17T01:45:59.144Z,99.90
2018-09-17T01:48:27.683Z,99.90
2018-09-17T01:50:56.215Z,99.90
2018-09-17T01:53:24.732Z,99.90
2018-09-17T01:55:53.217Z,99.90
2018-09-17T01:58:21.729Z,99.90
2018-09-17T02:00:50.214Z,99.90
2018-09-17T02:03:18.706Z,99.90
2018-09-17T02:05:47.204Z,99.90
2018-09-17T02:08:15.719Z,99.90
2018-09-17T02:10:44.201Z,99.90
2018-09-17T02:13:13.027Z,99.90
2018-09-17T02:15:41.529Z,99.90
2018-09-17T02:18:10.167Z,99.90
2018-09-17T02:20:39.074Z,99.90
2018-09-17T02:23:07.745Z,99.90
2018-09-17T02:25:36.235Z,99.90
2018-09-17T02:28:04.984Z,99.90
2018-09-17T02:30:33.516Z,99.90
2018-09-17T02:33:02.067Z,99.90
2018-09-17T02:35:30.583Z,99.90
2018-09-17T02:37:59.116Z,99.90
2018-09-17T02:40:27.652Z,99.90
2018-09-17T02:42:56.164Z,99.90
2018-09-17T02:45:24.678Z,99.90
2018-09-17T02:47:53.169Z,99.90
2018-09-17T02:50:21.662Z,99.90
2018-09-17T02:52:50.190Z,99.90
2018-09-17T02:55:18.710Z,99.90
2018-09-17T02:57:47.257Z,99.90
2018-09-17T03:00:19.491Z,99.90
2018-09-17T03:02:49.671Z,99.90
2018-09-17T03:05:18.133Z,99.90
2018-09-17T03:07:46.646Z,99.90
2018-09-17T03:10:15.206Z,99.90
2018-09-17T03:12:43.729Z,99.90
2018-09-17T03:15:23.532Z,99.90
2018-09-17T03:17:52.051Z,99.90
2018-09-17T03:20:20.587Z,99.90
2018-09-17T03:22:49.108Z,99.90
2018-09-17T03:25:17.622Z,99.90
2018-09-17T03:27:46.231Z,99.90
2018-09-17T03:30:14.792Z,99.90
2018-09-17T03:32:43.273Z,99.90
2018-09-17T03:35:11.827Z,99.90
2018-09-17T03:37:40.358Z,99.90
2018-09-17T03:40:08.860Z,99.90
2018-09-17T03:42:37.390Z,99.90
2018-09-17T03:45:05.940Z,99.90
2018-09-17T03:47:34.497Z,99.90
2018-09-17T03:50:03.034Z,99.90
2018-09-17T03:52:31.515Z,99.90
2018-09-17T03:55:00.166Z,99.90
2018-09-17T03:57:28.650Z,99.90
2018-09-17T03:59:57.180Z,99.90
2018-09-17T04:02:25.677Z,99.90
2018-09-17T04:04:54.510Z,99.90
2018-09-17T04:07:23.010Z,99.90
2018-09-17T04:09:51.569Z,99.90
2018-09-17T04:12:20.117Z,99.90
2018-09-17T04:14:48.656Z,99.90
2018-09-17T04:17:17.172Z,99.90
2018-09-17T04:19:45.765Z,99.90
2018-09-17T04:22:14.288Z,99.90
2018-09-17T04:24:42.780Z,99.90
2018-09-17T04:27:11.313Z,99.90
2018-09-17T04:29:39.835Z,99.90
2018-09-17T04:32:08.322Z,99.90
2018-09-17T04:34:36.900Z,99.90
2018-09-17T04:37:05.484Z,99.90
2018-09-17T04:39:34.130Z,99.90
2018-09-17T04:42:02.655Z,99.90
2018-09-17T04:44:31.269Z,99.90
2018-09-17T04:46:59.818Z,99.90
2018-09-17T04:49:28.345Z,99.90
2018-09-17T04:51:56.884Z,99.90
2018-09-17T04:54:25.410Z,99.90
2018-09-17T04:56:53.940Z,99.90
2018-09-17T04:59:22.419Z,99.90
2018-09-17T05:01:50.942Z,99.90
2018-09-17T05:04:19.467Z,99.90
2018-09-17T05:06:47.994Z,99.90
2018-09-17T05:09:16.520Z,99.90
2018-09-17T05:11:45.023Z,99.90
2018-09-17T05:14:13.565Z,99.90
2018-09-17T05:16:42.046Z,99.90
2018-09-17T05:19:10.574Z,99.90
2018-09-17T05:21:39.133Z,99.90
2018-09-17T05:24:07.679Z,99.90
2018-09-17T05:26:36.361Z,99.90
2018-09-17T05:29:04.867Z,99.90
2018-09-17T05:31:33.416Z,99.90
2018-09-17T05:34:02.004Z,99.90
2018-09-17T05:36:30.465Z,99.90
2018-09-17T05:38:58.988Z,99.90
2018-09-17T05:41:27.561Z,99.90
2018-09-17T05:43:56.345Z,99.90
2018-09-17T05:46:24.833Z,99.90
2018-09-17T05:48:53.333Z,99.90
2018-09-17T05:51:21.818Z,99.90
2018-09-17T05:53:50.383Z,99.90
2018-09-17T05:56:18.840Z,99.90
2018-09-17T05:58:47.365Z,99.90
2018-09-17T06:01:15.943Z,99.90
2018-09-17T06:03:44.442Z,99.90
2018-09-17T06:06:12.943Z,99.90
2018-09-17T06:08:41.552Z,99.90
2018-09-17T06:11:10.729Z,99.90
2018-09-17T06:13:39.583Z,99.90
2018-09-17T06:16:08.073Z,99.90
2018-09-17T06:18:36.670Z,99.90
2018-09-17T06:21:05.670Z,99.90
2018-09-17T06:23:34.176Z,99.90
2018-09-17T06:26:02.863Z,99.90
2018-09-17T06:28:32.036Z,99.90
2018-09-17T06:31:00.553Z,99.90
2018-09-17T06:33:29.117Z,99.90
2018-09-17T06:35:57.579Z,99.90
2018-09-17T06:38:26.130Z,99.90
2018-09-17T06:40:54.666Z,99.90
2018-09-17T06:43:23.217Z,99.90
2018-09-17T06:45:51.735Z,99.90
2018-09-17T06:48:20.197Z,99.90
2018-09-17T06:50:48.721Z,99.90
2018-09-17T06:53:17.242Z,99.90
2018-09-17T06:55:45.815Z,99.90
2018-09-17T06:58:14.334Z,99.90
2018-09-17T07:00:42.833Z,99.90
2018-09-17T07:03:11.333Z,99.90
2018-09-17T07:05:39.819Z,99.90
2018-09-17T07:08:08.346Z,99.90
2018-09-17T07:10:36.886Z,99.90
2018-09-17T07:13:05.457Z,99.90
2018-09-17T07:15:34.548Z,99.90
2018-09-17T07:18:03.134Z,99.90
2018-09-17T07:20:32.246Z,99.90
2018-09-17T07:23:00.754Z,99.90
2018-09-17T07:25:29.370Z,99.90
2018-09-17T07:27:57.933Z,99.90
2018-09-17T07:30:26.531Z,99.90
2018-09-17T07:32:55.072Z,99.90
2018-09-17T07:35:23.582Z,99.90
2018-09-17T07:37:52.108Z,99.90
2018-09-17T07:40:21.020Z,99.90
2018-09-17T07:42:49.625Z,99.90
2018-09-17T07:45:18.153Z,99.90
2018-09-17T07:47:46.697Z,99.90
2018-09-17T07:50:15.215Z,99.90
2018-09-17T07:52:43.716Z,99.90
2018-09-17T07:55:12.228Z,99.90
2018-09-17T07:57:40.715Z,99.90
2018-09-17T08:00:09.246Z,99.90
2018-09-17T08:02:37.800Z,99.90
2018-09-17T08:05:06.366Z,99.90
2018-09-17T08:07:35.524Z,99.90
2018-09-17T08:10:04.093Z,99.90
2018-09-17T08:12:32.618Z,99.90
2018-09-17T08:15:01.209Z,99.90
2018-09-17T08:17:29.734Z,99.90
2018-09-17T08:19:58.315Z,99.90
2018-09-17T08:22:26.813Z,99.90
2018-09-17T08:24:55.367Z,99.90
2018-09-17T08:27:24.735Z,99.90
2018-09-17T08:29:53.309Z,99.90
2018-09-17T08:32:21.800Z,99.90
2018-09-17T08:34:50.332Z,99.90
2018-09-17T08:37:18.902Z,99.90
2018-09-17T08:39:47.466Z,99.90
2018-09-17T08:42:15.966Z,99.90
2018-09-17T08:44:44.524Z,99.90
2018-09-17T08:47:13.030Z,99.90
2018-09-17T08:49:41.519Z,99.90
2018-09-17T08:52:10.099Z,99.80
2018-09-17T08:54:43.970Z,99.70
2018-09-17T08:57:17.683Z,99.60
2018-09-17T08:59:46.258Z,99.00
2018-09-17T09:02:15.871Z,98.40
2018-09-17T09:04:49.772Z,98.20
2018-09-17T09:07:23.705Z,97.80
2018-09-17T09:09:54.804Z,97.50
2018-09-17T09:12:31.358Z,97.50
2018-09-17T09:15:05.198Z,97.20
2018-09-17T09:17:33.781Z,97.00
2018-09-17T09:20:02.354Z,96.50
2018-09-17T09:22:30.907Z,96.40
2018-09-17T09:24:59.417Z,96.10
2018-09-17T09:27:27.989Z,95.90
2018-09-17T09:29:56.824Z,95.40
2018-09-17T09:32:25.397Z,95.20
2018-09-17T09:34:53.918Z,95.00
2018-09-17T09:37:22.415Z,94.80
2018-09-17T09:39:50.961Z,94.50
2018-09-17T09:42:19.473Z,94.20
2018-09-17T09:44:47.977Z,94.00
2018-09-17T09:47:16.464Z,93.90
2018-09-17T09:49:44.963Z,93.70
2018-09-17T09:52:13.458Z,93.60
2018-09-17T09:54:41.953Z,93.50
2018-09-17T09:57:10.500Z,93.50
2018-09-17T09:59:39.016Z,93.50
2018-09-17T10:02:12.950Z,93.50
2018-09-17T10:04:41.464Z,93.40
2018-09-17T10:07:09.986Z,93.10
2018-09-17T10:09:43.723Z,92.80
2018-09-17T10:12:17.333Z,92.60
2018-09-17T10:14:51.132Z,92.40
2018-09-17T10:17:25.031Z,92.20
2018-09-17T10:19:53.731Z,92.00
2018-09-17T10:22:22.262Z,91.40
2018-09-17T10:24:50.814Z,91.30
2018-09-17T10:27:19.396Z,90.70
2018-09-17T10:29:48.271Z,90.50
2018-09-17T10:32:16.722Z,90.40
2018-09-17T10:34:45.314Z,89.70
2018-09-17T10:37:13.852Z,87.90
2018-09-17T10:39:42.316Z,87.80
2018-09-17T10:42:10.823Z,86.60
2018-09-17T10:44:39.571Z,86.10
2018-09-17T10:47:08.088Z,85.00
2018-09-17T10:49:36.590Z,84.30
2018-09-17T10:52:05.150Z,83.90
2018-09-17T10:54:33.682Z,83.60
2018-09-17T10:57:02.167Z,82.20
2018-09-17T10:59:30.717Z,82.30
2018-09-17T11:01:59.218Z,81.60
2018-09-17T11:04:27.790Z,80.60
2018-09-17T11:06:56.266Z,80.40
2018-09-17T11:09:24.775Z,79.30
2018-09-17T11:11:53.297Z,78.40
2018-09-17T11:14:21.822Z,78.20
2018-09-17T11:16:50.307Z,76.70
2018-09-17T11:19:18.792Z,76.90
2018-09-17T11:21:47.376Z,75.60
2018-09-17T11:24:15.894Z,75.10
2018-09-17T11:26:44.439Z,74.10
2018-09-17T11:29:19.681Z,73.20
2018-09-17T11:31:48.174Z,72.90
2018-09-17T11:34:16.688Z,71.90
2018-09-17T11:36:45.237Z,71.20
2018-09-17T11:39:13.738Z,70.00
2018-09-17T11:41:42.235Z,69.50
2018-09-17T11:44:10.766Z,69.20
2018-09-17T11:46:39.278Z,68.70
2018-09-17T11:49:07.872Z,69.00
2018-09-17T11:51:36.329Z,68.10
2018-09-17T11:54:04.870Z,68.20
2018-09-17T11:56:33.383Z,68.10
2018-09-17T11:59:01.877Z,68.10
2018-09-17T12:01:35.866Z,66.90
2018-09-17T12:04:09.724Z,66.90
2018-09-17T12:06:43.679Z,66.70
2018-09-17T12:09:12.736Z,65.50
2018-09-17T12:11:41.700Z,64.90
2018-09-17T12:14:10.248Z,64.90
2018-09-17T12:16:38.793Z,65.30
2018-09-17T12:19:07.289Z,64.70
2018-09-17T12:21:35.816Z,63.30
2018-09-17T12:24:04.328Z,63.10
2018-09-17T12:26:32.810Z,62.10
2018-09-17T12:29:01.400Z,62.70
2018-09-17T12:31:29.890Z,62.30
2018-09-17T12:33:59.430Z,61.40
2018-09-17T12:36:27.874Z,60.90
2018-09-17T12:38:56.362Z,60.90
2018-09-17T12:41:24.870Z,61.10
2018-09-17T12:43:53.397Z,60.80
2018-09-17T12:46:21.872Z,60.10
2018-09-17T12:48:50.375Z,59.70
2018-09-17T12:51:18.848Z,59.30
2018-09-17T12:53:47.405Z,59.20
2018-09-17T12:56:15.904Z,58.80
2018-09-17T12:58:44.383Z,59.10
2018-09-17T13:01:12.853Z,58.40
2018-09-17T13:03:41.334Z,57.70
2018-09-17T13:06:09.846Z,57.50
2018-09-17T13:08:38.362Z,57.10
2018-09-17T13:11:06.852Z,56.60
2018-09-17T13:13:37.896Z,55.90
2018-09-17T13:16:07.411Z,55.00
2018-09-17T13:18:35.931Z,54.60
2018-09-17T13:21:04.459Z,53.90
2018-09-17T13:23:33.013Z,53.70
2018-09-17T13:26:01.580Z,53.20
2018-09-17T13:28:30.073Z,52.10
2018-09-17T13:30:58.597Z,50.50
2018-09-17T13:33:27.144Z,50.40
2018-09-17T13:35:55.661Z,48.30
2018-09-17T13:40:52.476Z,42.10
2018-09-17T13:43:20.971Z,37.10
2018-09-17T13:45:49.519Z,34.60
2018-09-17T13:48:18.017Z,31.70
2018-09-17T13:50:46.549Z,29.60
2018-09-17T13:53:15.129Z,28.40
2018-09-17T13:55:43.605Z,26.20
2018-09-17T14:00:40.401Z,23.50
2018-09-17T14:03:08.985Z,23.20
2018-09-17T14:05:38.005Z,21.60
2018-09-17T14:08:06.560Z,20.10
2018-09-17T14:10:35.209Z,19.00
2018-09-17T14:13:03.745Z,18.20
2018-09-17T14:15:32.261Z,18.20
2018-09-17T14:18:00.779Z,18.20
2018-09-17T14:20:29.368Z,17.80
2018-09-17T14:22:58.028Z,17.50
2018-09-17T14:25:26.516Z,17.20
2018-09-17T14:27:55.042Z,16.70
2018-09-17T14:30:23.578Z,16.30
2018-09-17T14:32:57.503Z,16.00
2018-09-17T14:35:26.078Z,15.80
2018-09-17T14:37:54.908Z,15.70
2018-09-17T14:40:23.519Z,15.50
2018-09-17T14:42:52.039Z,15.20
2018-09-17T14:45:20.914Z,15.00
2018-09-17T14:47:51.145Z,15.00
2018-09-17T14:50:19.683Z,15.70
2018-09-17T14:52:48.224Z,14.70
2018-09-17T14:55:16.759Z,14.90
2018-09-17T14:57:45.327Z,15.20
2018-09-17T15:00:13.876Z,15.10
2018-09-17T15:02:42.369Z,15.20
2018-09-17T15:05:10.915Z,15.50
2018-09-17T15:07:39.545Z,15.60
2018-09-17T15:10:08.189Z,15.60
2018-09-17T15:12:36.908Z,15.90
2018-09-17T15:15:05.497Z,16.20
2018-09-17T15:17:33.955Z,16.30
2018-09-17T15:20:02.579Z,16.50
2018-09-17T15:22:31.047Z,17.30
2018-09-17T15:24:59.557Z,18.30
2018-09-17T15:27:28.081Z,19.30
2018-09-17T15:29:56.547Z,20.00
2018-09-17T15:32:25.187Z,20.60
2018-09-17T15:34:53.865Z,21.40
2018-09-17T15:37:22.392Z,21.50
2018-09-17T15:39:50.901Z,21.60
2018-09-17T15:42:19.428Z,22.00
2018-09-17T15:44:47.996Z,22.30
2018-09-17T15:47:16.537Z,22.60
2018-09-17T15:49:45.119Z,22.80
2018-09-17T15:52:13.692Z,23.00
2018-09-17T15:54:42.164Z,23.60
2018-09-17T15:57:10.697Z,23.10
2018-09-17T15:59:39.392Z,23.70
2018-09-17T16:02:07.940Z,23.30
2018-09-17T16:04:36.417Z,23.20
2018-09-17T16:07:04.937Z,22.90
2018-09-17T16:09:33.454Z,22.80
2018-09-17T16:12:02.034Z,22.70
2018-09-17T16:14:30.661Z,22.30
2018-09-17T16:16:59.147Z,22.90
2018-09-17T16:19:27.747Z,23.60
2018-09-17T16:21:56.335Z,24.30
2018-09-17T16:24:24.900Z,25.00
2018-09-17T16:26:53.444Z,25.60
2018-09-17T16:29:22.091Z,26.20
2018-09-17T16:31:50.592Z,26.30
2018-09-17T16:34:19.196Z,26.40
2018-09-17T16:36:47.734Z,26.90
2018-09-17T16:39:16.258Z,27.50
2018-09-17T16:41:44.846Z,29.30
2018-09-17T16:44:14.163Z,29.40
2018-09-17T16:46:42.759Z,29.50
2018-09-17T16:49:11.286Z,30.30
2018-09-17T16:51:39.773Z,32.70
2018-09-17T16:54:08.280Z,34.10
2018-09-17T16:56:36.780Z,34.60
2018-09-17T16:59:05.300Z,36.00
2018-09-17T17:01:33.813Z,36.30
2018-09-17T17:04:02.415Z,38.60
2018-09-17T17:06:30.938Z,39.80
2018-09-17T17:08:59.497Z,40.90
2018-09-17T17:11:28.026Z,41.80
2018-09-17T17:13:56.612Z,41.90
2018-09-17T17:16:25.180Z,42.40
2018-09-17T17:18:53.781Z,43.30
2018-09-17T17:21:22.164Z,43.70
2018-09-17T17:23:50.645Z,44.50
2018-09-17T17:26:19.172Z,45.00
2018-09-17T17:28:47.673Z,46.20
2018-09-17T17:31:16.173Z,47.40
2018-09-17T17:33:44.759Z,48.70
2018-09-17T17:36:13.298Z,49.00
2018-09-17T17:38:41.796Z,50.50
2018-09-17T17:41:10.340Z,51.40
2018-09-17T17:43:38.818Z,52.50
2018-09-17T17:46:07.637Z,52.80
2018-09-17T17:48:36.019Z,53.20
2018-09-17T17:51:04.504Z,53.70
2018-09-17T17:53:32.989Z,54.80
2018-09-17T17:56:01.468Z,55.70
2018-09-17T17:58:29.985Z,56.10
2018-09-17T18:03:26.741Z,57.10
2018-09-17T18:05:55.288Z,58.40
2018-09-17T18:08:23.832Z,59.00
2018-09-17T18:10:52.297Z,59.70
2018-09-17T18:13:21.117Z,60.70
2018-09-17T18:15:49.648Z,61.30
2018-09-17T18:18:18.162Z,61.90
2018-09-17T18:20:46.658Z,62.40
2018-09-17T18:23:15.200Z,62.90
2018-09-17T18:25:43.720Z,63.20
2018-09-17T18:28:12.211Z,63.90
2018-09-17T18:30:40.762Z,64.80
2018-09-17T18:33:09.321Z,65.60
2018-09-17T18:35:37.786Z,66.00
2018-09-17T18:38:06.305Z,66.30
2018-09-17T18:40:34.785Z,67.20
2018-09-17T18:43:03.274Z,67.70
2018-09-17T18:45:31.778Z,68.10
2018-09-17T18:48:00.298Z,68.10
2018-09-17T18:50:28.776Z,68.60
2018-09-17T18:52:57.253Z,69.50
2018-09-17T18:55:25.751Z,70.70
2018-09-17T18:57:54.253Z,70.50
2018-09-17T19:00:22.776Z,71.20
2018-09-17T19:02:51.360Z,72.10
2018-09-17T19:05:19.804Z,72.50
2018-09-17T19:07:48.354Z,72.50
2018-09-17T19:10:16.924Z,72.90
2018-09-17T19:12:45.560Z,73.30
2018-09-17T19:15:52.189Z,74.10
2018-09-17T19:18:20.799Z,74.50
2018-09-17T19:20:50.364Z,75.20
2018-09-17T19:25:52.440Z,76.40
2018-09-17T19:28:26.266Z,77.60
2018-09-17T19:30:54.841Z,78.20
2018-09-17T19:33:23.396Z,78.90
2018-09-17T19:35:52.607Z,80.70
2018-09-17T19:38:26.652Z,81.80
2018-09-17T19:40:55.111Z,82.70
2018-09-17T19:43:23.729Z,83.40
2018-09-17T19:45:57.523Z,84.50
2018-09-17T19:48:26.051Z,85.50
2018-09-17T19:50:59.841Z,87.40
2018-09-17T19:53:28.403Z,88.20
2018-09-17T19:55:57.146Z,88.60
2018-09-17T19:58:30.835Z,90.00
2018-09-17T20:00:59.375Z,90.50
2018-09-17T20:03:27.835Z,90.90
2018-09-17T20:06:01.690Z,91.60
2018-09-17T20:08:30.241Z,92.10
2018-09-17T20:10:58.766Z,92.50
2018-09-17T20:13:27.359Z,93.20
2018-09-17T20:15:57.893Z,93.60
2018-09-17T20:18:26.454Z,93.90
2018-09-17T20:20:54.987Z,94.70
2018-09-17T20:23:23.487Z,95.20
2018-09-17T20:25:51.962Z,95.60
2018-09-17T20:28:20.455Z,96.20
2018-09-17T20:30:49.013Z,96.60
2018-09-17T20:33:17.839Z,97.00
2018-09-17T20:35:46.388Z,97.60
2018-09-17T20:38:14.956Z,98.20
2018-09-17T20:40:43.419Z,98.40
2018-09-17T20:43:11.895Z,98.60
2018-09-17T20:45:40.407Z,98.70
2018-09-17T20:48:08.944Z,99.00
2018-09-17T20:50:37.485Z,99.40
2018-09-17T20:53:06.229Z,99.70
2018-09-17T20:55:34.830Z,99.90
2018-09-17T20:58:03.450Z,99.90
2018-09-17T21:00:31.969Z,99.90
2018-09-17T21:03:00.499Z,99.90
2018-09-17T21:05:29.050Z,99.90
2018-09-17T21:07:57.591Z,99.90
2018-09-17T21:10:26.075Z,99.90
2018-09-17T21:12:54.627Z,99.90
2018-09-17T21:15:23.181Z,99.90
2018-09-17T21:17:51.698Z,99.90
2018-09-17T21:20:20.357Z,99.90
2018-09-17T21:22:48.938Z,99.90
2018-09-17T21:25:17.562Z,99.90
2018-09-17T21:27:46.959Z,99.90
2018-09-17T21:30:15.464Z,99.90
2018-09-17T21:32:43.940Z,99.90
2018-09-17T21:35:12.496Z,99.90
2018-09-17T21:37:40.983Z,99.90
2018-09-17T21:40:09.607Z,99.90
2018-09-17T21:42:38.069Z,99.90
2018-09-17T21:45:07.782Z,99.90
2018-09-17T21:47:36.307Z,99.90
2018-09-17T21:50:04.806Z,99.90
2018-09-17T21:52:33.319Z,99.90
2018-09-17T21:55:01.800Z,99.90
2018-09-17T21:57:30.291Z,99.90
2018-09-17T21:59:58.800Z,99.90
2018-09-17T22:02:27.333Z,99.90
2018-09-17T22:04:55.926Z,99.90
2018-09-17T22:07:25.157Z,99.90
2018-09-17T22:09:54.024Z,99.90
2018-09-17T22:12:22.569Z,99.90
2018-09-17T22:14:51.465Z,99.90
2018-09-17T22:17:20.178Z,99.90
2018-09-17T22:19:48.781Z,99.90
2018-09-17T22:22:17.350Z,99.90
2018-09-17T22:24:45.914Z,99.90
2018-09-17T22:27:14.382Z,99.90
2018-09-17T22:29:42.898Z,99.90
2018-09-17T22:32:11.407Z,99.90
2018-09-17T22:34:39.913Z,99.90
2018-09-17T22:37:08.441Z,99.90
2018-09-17T22:39:36.930Z,99.90
2018-09-17T22:42:05.437Z,99.90
2018-09-17T22:44:33.981Z,99.90
2018-09-17T22:47:02.548Z,99.90
2018-09-17T22:49:31.073Z,99.90
2018-09-17T22:51:59.568Z,99.90
2018-09-17T22:54:28.052Z,99.90
2018-09-17T22:56:56.627Z,99.90
2018-09-17T22:59:25.134Z,99.90
2018-09-17T23:01:53.674Z,99.90
2018-09-17T23:04:22.179Z,99.90
2018-09-17T23:06:50.706Z,99.90
2018-09-17T23:09:23.974Z,99.90
2018-09-17T23:11:53.344Z,99.90
2018-09-17T23:14:21.901Z,99.90
2018-09-17T23:16:50.408Z,99.90
2018-09-17T23:19:18.933Z,99.90
2018-09-17T23:21:47.410Z,99.90
2018-09-17T23:24:16.289Z,99.90
2018-09-17T23:26:44.782Z,99.90
2018-09-17T23:29:13.254Z,99.90
2018-09-17T23:31:41.811Z,99.90
2018-09-17T23:34:10.335Z,99.90
2018-09-17T23:36:38.918Z,99.90
2018-09-17T23:39:10.495Z,99.90
2018-09-17T23:41:39.702Z,99.90
2018-09-17T23:44:08.364Z,99.90
2018-09-17T23:46:37.247Z,99.90
2018-09-17T23:49:06.102Z,99.90
2018-09-17T23:51:34.587Z,99.90
2018-09-17T23:54:03.089Z,99.90
2018-09-17T23:56:31.616Z,99.90
2018-09-17T23:59:00.087Z,99.90
